Time;durP1;ratioP1;P1;durP2;ratioP2;P2;SDS_P1;SDS_P2;PMS_P1;PMS_P2;Temp;Humidity;BMP_temperature;BMP_pressure;BME280_temperature;BME280_humidity;BME280_pressure;Samples;Min_cycle;Max_cycle;Signal;HPM_P1;HPM_P2
2023/07/27 00:02:16;;;;;;;32.20;16.50;;;;;;;;;;10572335;28;20623;-83
2023/07/27 00:07:17;;;;;;;29.52;13.85;;;;;;;;;;10572008;28;20099;-83
2023/07/27 00:12:18;;;;;;;35.33;14.68;;;;;;;;;;10547056;28;20016;-82
2023/07/27 00:17:19;;;;;;;25.08;13.15;;;;;;;;;;10554391;28;20028;-85
2023/07/27 00:22:21;;;;;;;17.65;10.45;;;;;;;;;;10530285;28;20135;-83
2023/07/27 00:27:22;;;;;;;22.75;10.88;;;;;;;;;;10514024;28;20020;-84
2023/07/27 00:32:23;;;;;;;16.70;9.65;;;;;;;;;;10519010;28;20031;-85
2023/07/27 00:37:24;;;;;;;21.35;9.80;;;;;;;;;;10528434;28;20043;-84
2023/07/27 00:42:25;;;;;;;18.23;8.77;;;;;;;;;;10528380;28;20036;-84
2023/07/27 00:47:27;;;;;;;17.27;8.02;;;;;;;;;;10521288;28;20407;-84
2023/07/27 00:52:28;;;;;;;17.67;9.40;;;;;;;;;;10521324;28;20464;-85
2023/07/27 00:57:29;;;;;;;16.40;8.18;;;;;;;;;;10527324;28;20042;-82
2023/07/27 01:02:30;;;;;;;14.82;7.40;;;;;;;;;;10525471;28;20039;-84
2023/07/27 01:07:31;;;;;;;15.38;8.63;;;;;;;;;;10515329;28;20625;-84
2023/07/27 01:12:39;;;;;;;13.80;6.97;;;;;;;;;;10525250;28;20027;-83
2023/07/27 01:17:44;;;;;;;14.75;7.25;;;;;;;;;;10515547;28;20032;-83
2023/07/27 01:23:04;;;;;;;13.10;7.10;;;;;;;;;;10526999;28;20032;-83
2023/07/27 01:28:18;;;;;;;15.93;7.70;;;;;;;;;;10526121;28;20111;-84
2023/07/27 01:33:23;;;;;;;11.27;6.75;;;;;;;;;;10526975;28;20051;-83
2023/07/27 01:38:25;;;;;;;16.80;8.30;;;;;;;;;;10532521;28;20020;-84
2023/07/27 01:43:27;;;;;;;14.30;8.10;;;;;;;;;;10525855;28;20044;-84
2023/07/27 01:48:28;;;;;;;20.45;9.07;;;;;;;;;;10540004;28;20468;-84
2023/07/27 01:53:29;;;;;;;14.68;8.63;;;;;;;;;;10538622;28;20034;-84
2023/07/27 01:58:30;;;;;;;21.77;9.73;;;;;;;;;;10540182;28;20047;-83
2023/07/27 02:03:32;;;;;;;19.50;9.70;;;;;;;;;;10538848;28;20043;-84
2023/07/27 02:08:33;;;;;;;22.10;10.88;;;;;;;;;;10537460;28;20032;-84
2023/07/27 02:13:54;;;;;;;18.33;9.45;;;;;;;;;;10539623;28;20028;-83
2023/07/27 02:18:56;;;;;;;21.35;10.70;;;;;;;;;;10537883;28;20110;-83
2023/07/27 02:23:58;;;;;;;24.45;11.80;;;;;;;;;;10537510;28;20394;-85
2023/07/27 02:28:59;;;;;;;19.70;11.10;;;;;;;;;;10539346;28;20031;-83
2023/07/27 02:34:00;;;;;;;23.70;11.43;;;;;;;;;;10538229;28;20052;-84
2023/07/27 02:39:02;;;;;;;18.92;11.13;;;;;;;;;;10538539;28;20031;-85
2023/07/27 02:44:03;;;;;;;20.92;11.23;;;;;;;;;;10529858;28;20116;-84
2023/07/27 02:49:04;;;;;;;21.05;11.40;;;;;;;;;;10526705;28;20060;-84
2023/07/27 02:54:05;;;;;;;19.63;11.50;;;;;;;;;;10525462;28;20038;-84
2023/07/27 02:59:06;;;;;;;26.33;12.70;;;;;;;;;;10531588;28;20036;-85
2023/07/27 03:04:07;;;;;;;27.52;13.55;;;;;;;;;;10525326;28;20438;-84
2023/07/27 03:09:08;;;;;;;19.40;12.07;;;;;;;;;;10520924;28;20102;-85
2023/07/27 03:14:10;;;;;;;22.52;12.27;;;;;;;;;;10530790;28;20070;-84
2023/07/27 03:19:11;;;;;;;20.33;10.93;;;;;;;;;;10530920;28;20068;-84
2023/07/27 03:24:16;;;;;;;18.17;11.13;;;;;;;;;;10517945;28;20064;-85
2023/07/27 03:29:17;;;;;;;18.48;10.70;;;;;;;;;;10524865;28;20834;-84
2023/07/27 03:34:18;;;;;;;22.33;10.48;;;;;;;;;;10531430;28;20048;-84
2023/07/27 03:39:19;;;;;;;20.00;12.13;;;;;;;;;;10524261;28;20386;-85
2023/07/27 03:44:20;;;;;;;18.90;11.77;;;;;;;;;;10520448;28;20041;-83
2023/07/27 03:49:21;;;;;;;24.65;13.60;;;;;;;;;;10526011;28;20020;-82
2023/07/27 03:54:22;;;;;;;24.42;12.55;;;;;;;;;;10513981;28;20105;-87
2023/07/27 03:59:23;;;;;;;21.40;12.10;;;;;;;;;;10527132;28;20404;-84
2023/07/27 04:04:24;;;;;;;22.08;12.48;;;;;;;;;;10527533;28;20103;-84
2023/07/27 04:09:25;;;;;;;18.75;12.23;;;;;;;;;;10527670;28;20028;-83
2023/07/27 04:14:26;;;;;;;19.30;10.90;;;;;;;;;;10530046;28;20032;-84
2023/07/27 04:19:27;;;;;;;22.77;11.70;;;;;;;;;;10517176;28;20027;-83
2023/07/27 04:24:28;;;;;;;16.23;9.43;;;;;;;;;;10514529;28;20040;-86
2023/07/27 04:29:29;;;;;;;18.67;10.50;;;;;;;;;;10513847;28;20024;-87
2023/07/27 04:34:30;;;;;;;20.42;10.60;;;;;;;;;;10506191;28;20485;-85
2023/07/27 04:39:31;;;;;;;15.55;9.18;;;;;;;;;;10516603;28;20027;-84
2023/07/27 04:44:32;;;;;;;17.95;9.60;;;;;;;;;;10550335;28;20040;-84
2023/07/27 04:49:33;;;;;;;17.75;10.13;;;;;;;;;;10532757;28;20573;-84
2023/07/27 04:54:34;;;;;;;17.55;10.43;;;;;;;;;;10528540;28;20028;-84
2023/07/27 04:59:35;;;;;;;18.95;10.88;;;;;;;;;;10526127;28;20024;-83
2023/07/27 05:04:36;;;;;;;18.92;11.32;;;;;;;;;;10527119;28;20036;-85
2023/07/27 05:09:37;;;;;;;15.13;9.02;;;;;;;;;;10525955;28;20024;-84
2023/07/27 05:14:38;;;;;;;13.35;8.15;;;;;;;;;;10525071;28;20032;-84
2023/07/27 05:19:39;;;;;;;17.98;9.25;;;;;;;;;;10527482;28;20423;-84
2023/07/27 05:24:40;;;;;;;14.32;8.77;;;;;;;;;;10525328;28;20032;-83
2023/07/27 05:29:42;;;;;;;12.20;6.88;;;;;;;;;;10527323;28;20036;-85
2023/07/27 05:34:43;;;;;;;13.77;7.32;;;;;;;;;;10526483;28;20142;-84
2023/07/27 05:39:44;;;;;;;12.48;7.43;;;;;;;;;;10525136;28;20032;-84
2023/07/27 05:44:45;;;;;;;12.45;7.28;;;;;;;;;;10526537;28;20032;-85
2023/07/27 05:49:46;;;;;;;14.23;7.93;;;;;;;;;;10526192;28;20071;-84
2023/07/27 05:54:47;;;;;;;11.13;6.68;;;;;;;;;;10527067;28;20051;-84
2023/07/27 05:59:48;;;;;;;13.32;6.45;;;;;;;;;;10526490;28;20691;-85
2023/07/27 06:04:49;;;;;;;10.95;5.68;;;;;;;;;;10555538;28;20092;-84
2023/07/27 06:09:50;;;;;;;9.02;5.15;;;;;;;;;;10535201;28;20058;-84
2023/07/27 06:14:51;;;;;;;7.68;4.95;;;;;;;;;;10526452;28;20042;-84
2023/07/27 06:19:52;;;;;;;8.32;4.45;;;;;;;;;;10525606;28;20024;-85
2023/07/27 06:24:53;;;;;;;8.52;5.13;;;;;;;;;;10530230;28;20036;-85
2023/07/27 06:29:54;;;;;;;9.85;4.78;;;;;;;;;;10533759;28;20032;-84
2023/07/27 06:34:55;;;;;;;7.95;5.05;;;;;;;;;;10533460;28;20539;-85
2023/07/27 06:39:56;;;;;;;10.63;4.13;;;;;;;;;;10531469;28;20079;-85
2023/07/27 06:44:57;;;;;;;6.05;3.83;;;;;;;;;;10531371;28;20036;-83
2023/07/27 06:49:58;;;;;;;5.25;2.85;;;;;;;;;;10531392;28;20718;-84
2023/07/27 06:54:59;;;;;;;2.75;2.47;;;;;;;;;;10531047;28;20026;-84
2023/07/27 07:00:00;;;;;;;4.40;2.80;;;;;;;;;;10531303;28;20701;-84
2023/07/27 07:05:02;;;;;;;3.35;2.53;;;;;;;;;;10532940;28;20119;-84
2023/07/27 07:10:04;;;;;;;4.18;2.83;;;;;;;;;;10531441;28;20372;-85
2023/07/27 07:15:05;;;;;;;4.95;3.50;;;;;;;;;;10532114;28;20026;-85
2023/07/27 07:20:09;;;;;;;5.88;2.55;;;;;;;;;;10530072;28;20031;-85
2023/07/27 07:25:10;;;;;;;4.88;3.03;;;;;;;;;;10532240;28;20142;-85
2023/07/27 07:30:11;;;;;;;3.28;2.33;;;;;;;;;;10531117;28;20024;-87
2023/07/27 07:35:12;;;;;;;6.78;2.47;;;;;;;;;;10528907;28;20549;-85
2023/07/27 07:40:13;;;;;;;2.50;1.98;;;;;;;;;;10528760;28;20030;-86
2023/07/27 07:45:14;;;;;;;3.65;2.40;;;;;;;;;;10530345;28;20032;-85
2023/07/27 07:50:15;;;;;;;2.65;1.67;;;;;;;;;;10530803;28;20119;-85
2023/07/27 07:55:16;;;;;;;2.63;1.98;;;;;;;;;;10530109;28;20099;-85
2023/07/27 08:00:17;;;;;;;6.72;1.85;;;;;;;;;;10529780;28;20052;-85
2023/07/27 08:05:18;;;;;;;3.42;1.83;;;;;;;;;;10528630;28;20020;-86
2023/07/27 08:10:19;;;;;;;4.05;2.15;;;;;;;;;;10529585;28;20031;-85
2023/07/27 08:15:20;;;;;;;2.53;1.85;;;;;;;;;;10529487;28;20026;-85
2023/07/27 08:20:21;;;;;;;4.70;1.98;;;;;;;;;;10527369;28;20077;-86
2023/07/27 08:25:22;;;;;;;3.55;1.92;;;;;;;;;;10527640;28;20096;-84
2023/07/27 08:30:23;;;;;;;3.28;1.60;;;;;;;;;;10528652;28;20043;-84
2023/07/27 08:35:24;;;;;;;1.88;1.63;;;;;;;;;;10526990;28;20122;-83
2023/07/27 08:40:26;;;;;;;3.88;2.25;;;;;;;;;;10528017;28;20074;-85
2023/07/27 08:45:29;;;;;;;4.60;1.92;;;;;;;;;;10526204;28;20077;-85
2023/07/27 08:50:31;;;;;;;2.67;1.95;;;;;;;;;;10528044;28;20024;-86
2023/07/27 08:55:32;;;;;;;5.20;1.70;;;;;;;;;;10527706;28;20028;-85
2023/07/27 09:00:33;;;;;;;4.80;2.10;;;;;;;;;;10528728;28;20437;-84
2023/07/27 09:05:41;;;;;;;3.83;1.75;;;;;;;;;;10528675;28;20039;-85
2023/07/27 09:10:44;;;;;;;2.45;1.80;;;;;;;;;;10527105;28;20020;-85
2023/07/27 09:15:45;;;;;;;2.78;1.85;;;;;;;;;;10525647;28;20536;-84
2023/07/27 09:20:46;;;;;;;3.67;1.90;;;;;;;;;;10525329;28;20046;-84
2023/07/27 09:25:54;;;;;;;2.95;2.20;;;;;;;;;;10525735;28;20027;-84
2023/07/27 09:30:58;;;;;;;3.97;1.98;;;;;;;;;;10527690;28;20027;-86
2023/07/27 09:36:01;;;;;;;5.77;2.60;;;;;;;;;;10527062;28;20052;-84
2023/07/27 09:41:07;;;;;;;2.72;1.92;;;;;;;;;;10525295;28;20031;-84
2023/07/27 09:46:08;;;;;;;4.72;2.22;;;;;;;;;;10526462;28;20027;-84
2023/07/27 09:51:09;;;;;;;2.50;2.00;;;;;;;;;;10525748;28;20024;-86
2023/07/27 09:56:12;;;;;;;3.72;1.95;;;;;;;;;;10526700;28;20028;-84
2023/07/27 10:01:13;;;;;;;5.78;2.10;;;;;;;;;;10534257;28;20036;-85
2023/07/27 10:06:18;;;;;;;4.13;2.03;;;;;;;;;;10534598;28;20024;-84
2023/07/27 10:11:27;;;;;;;4.30;2.10;;;;;;;;;;10534926;28;20568;-85
2023/07/27 10:16:28;;;;;;;2.95;1.92;;;;;;;;;;10535011;28;20012;-84
2023/07/27 10:21:29;;;;;;;3.55;2.13;;;;;;;;;;10533079;28;20036;-85
2023/07/27 10:26:47;;;;;;;5.80;2.40;;;;;;;;;;10534473;28;20035;-85
2023/07/27 10:32:10;;;;;;;2.72;2.08;;;;;;;;;;10533637;28;20032;-85
2023/07/27 10:37:13;;;;;;;2.05;1.85;;;;;;;;;;10520962;28;20101;-86
2023/07/27 10:42:16;;;;;;;3.80;1.92;;;;;;;;;;10533156;28;20035;-85
2023/07/27 10:47:20;;;;;;;2.40;1.85;;;;;;;;;;10533361;28;20547;-85
2023/07/27 10:52:31;;;;;;;2.90;2.28;;;;;;;;;;10532797;28;20024;-85
2023/07/27 10:57:33;;;;;;;2.42;1.90;;;;;;;;;;10533228;28;20101;-86
2023/07/27 11:02:36;;;;;;;2.28;2.08;;;;;;;;;;10532963;28;20075;-85
2023/07/27 11:07:37;;;;;;;3.25;1.75;;;;;;;;;;10532283;28;20083;-86
2023/07/27 11:12:47;;;;;;;3.03;2.05;;;;;;;;;;10530912;28;20112;-85
2023/07/27 11:17:51;;;;;;;2.95;2.13;;;;;;;;;;10531529;28;20105;-84
2023/07/27 11:22:55;;;;;;;2.15;1.95;;;;;;;;;;10532200;28;20024;-85
2023/07/27 11:27:56;;;;;;;4.45;1.90;;;;;;;;;;10531113;28;20055;-85
2023/07/27 11:32:59;;;;;;;2.42;1.65;;;;;;;;;;10531062;28;20032;-85
2023/07/27 11:38:01;;;;;;;3.63;2.05;;;;;;;;;;10528995;28;20441;-85
2023/07/27 11:43:05;;;;;;;2.63;1.92;;;;;;;;;;10529682;28;20043;-85
2023/07/27 11:48:06;;;;;;;1.70;1.43;;;;;;;;;;10529123;28;20119;-85
2023/07/27 11:53:11;;;;;;;3.00;1.95;;;;;;;;;;10529832;28;20388;-84
2023/07/27 11:58:12;;;;;;;2.08;1.85;;;;;;;;;;10530556;28;20028;-86
2023/07/27 12:03:13;;;;;;;2.97;1.63;;;;;;;;;;10530233;28;20777;-84
2023/07/27 12:08:21;;;;;;;3.38;1.88;;;;;;;;;;10529328;28;20028;-85
2023/07/27 12:13:23;;;;;;;5.38;3.28;;;;;;;;;;10528411;28;20130;-86
2023/07/27 12:18:28;;;;;;;3.05;1.95;;;;;;;;;;10529736;28;20030;-85
2023/07/27 12:23:29;;;;;;;;;;;;;;;;;;10529084;28;20028;-85
2023/07/27 12:28:33;;;;;;;3.28;2.00;;;;;;;;;;10528620;28;19957;-84
2023/07/27 12:33:34;;;;;;;3.80;1.80;;;;;;;;;;10529063;28;20064;-84
2023/07/27 12:38:35;;;;;;;4.28;1.60;;;;;;;;;;10516945;28;20032;-84
2023/07/27 12:43:37;;;;;;;3.45;1.50;;;;;;;;;;10519504;28;20029;-84
2023/07/27 12:48:38;;;;;;;2.30;1.63;;;;;;;;;;10518605;28;20036;-83
2023/07/27 12:53:39;;;;;;;2.28;1.50;;;;;;;;;;10513159;28;20732;-84
2023/07/27 12:58:40;;;;;;;2.03;1.40;;;;;;;;;;10526153;28;20038;-85
2023/07/27 13:03:41;;;;;;;2.25;1.33;;;;;;;;;;10525498;28;20506;-84
2023/07/27 13:08:43;;;;;;;2.15;1.83;;;;;;;;;;10522745;28;20107;-84
2023/07/27 13:13:44;;;;;;;1.92;1.38;;;;;;;;;;10523244;28;20036;-84
2023/07/27 13:18:46;;;;;;;8.68;2.08;;;;;;;;;;10518466;28;20020;-87
2023/07/27 13:23:47;;;;;;;2.10;1.50;;;;;;;;;;10511914;28;20054;-84
2023/07/27 13:28:48;;;;;;;2.42;1.60;;;;;;;;;;10513492;28;20028;-87
2023/07/27 13:33:49;;;;;;;2.20;1.70;;;;;;;;;;10514015;28;20075;-85
2023/07/27 13:38:50;;;;;;;1.77;1.65;;;;;;;;;;10514690;28;20032;-85
2023/07/27 13:43:53;;;;;;;2.13;1.27;;;;;;;;;;10517045;28;20116;-87
2023/07/27 13:48:54;;;;;;;2.13;1.52;;;;;;;;;;10515008;28;20055;-86
2023/07/27 13:53:55;;;;;;;2.53;1.40;;;;;;;;;;10521411;28;20523;-84
2023/07/27 13:58:56;;;;;;;3.15;1.70;;;;;;;;;;10520628;28;20036;-85
2023/07/27 14:03:57;;;;;;;2.20;1.35;;;;;;;;;;10519865;28;20039;-86
2023/07/27 14:09:07;;;;;;;1.58;1.40;;;;;;;;;;10507966;28;20028;-84
2023/07/27 14:14:08;;;;;;;1.88;1.67;;;;;;;;;;10502334;28;20040;-84
2023/07/27 14:19:09;;;;;;;4.35;1.70;;;;;;;;;;10514227;28;20028;-83
2023/07/27 14:24:10;;;;;;;2.33;1.95;;;;;;;;;;10526250;28;20037;-86
2023/07/27 14:29:12;;;;;;;1.63;1.52;;;;;;;;;;10510936;28;20035;-86
2023/07/27 14:34:13;;;;;;;1.95;1.75;;;;;;;;;;10505579;28;20070;-83
2023/07/27 14:39:15;;;;;;;5.20;2.30;;;;;;;;;;10539425;28;20020;-85
2023/07/27 14:44:16;;;;;;;1.90;1.60;;;;;;;;;;10523890;28;20039;-83
2023/07/27 14:49:17;;;;;;;2.42;1.80;;;;;;;;;;10513856;28;20032;-84
2023/07/27 14:54:20;;;;;;;2.00;1.50;;;;;;;;;;10529627;28;20052;-83
2023/07/27 14:59:21;;;;;;;2.22;1.80;;;;;;;;;;10514367;28;20109;-83
2023/07/27 15:04:22;;;;;;;2.13;1.50;;;;;;;;;;10527303;28;20582;-83
2023/07/27 15:09:23;;;;;;;3.70;1.67;;;;;;;;;;10518975;28;20985;-84
2023/07/27 15:14:24;;;;;;;1.60;1.40;;;;;;;;;;10518886;28;20036;-85
2023/07/27 15:19:25;;;;;;;1.80;1.58;;;;;;;;;;10532249;28;20021;-84
2023/07/27 15:24:26;;;;;;;3.22;1.77;;;;;;;;;;10528228;28;20416;-84
2023/07/27 15:29:27;;;;;;;2.10;1.90;;;;;;;;;;10527623;28;20024;-85
2023/07/27 15:34:28;;;;;;;3.08;2.08;;;;;;;;;;10521020;28;20055;-84
2023/07/27 15:39:29;;;;;;;2.22;1.80;;;;;;;;;;10522347;28;20041;-84
2023/07/27 15:44:30;;;;;;;1.80;1.60;;;;;;;;;;10526060;28;20089;-85
2023/07/27 15:49:31;;;;;;;2.45;1.83;;;;;;;;;;10514810;22;20708;-84
2023/07/27 15:54:32;;;;;;;3.30;1.70;;;;;;;;;;10502528;28;20032;-84
2023/07/27 15:59:33;;;;;;;3.60;1.75;;;;;;;;;;10488479;28;20036;-85
2023/07/27 16:04:34;;;;;;;2.90;1.92;;;;;;;;;;10488684;28;20040;-85
2023/07/27 16:09:35;;;;;;;2.38;1.88;;;;;;;;;;10488968;28;20089;-84
2023/07/27 16:14:36;;;;;;;2.10;1.55;;;;;;;;;;10487139;28;20029;-85
2023/07/27 16:19:37;;;;;;;2.85;1.52;;;;;;;;;;10461632;28;20037;-85
2023/07/27 16:24:39;;;;;;;2.47;1.95;;;;;;;;;;10446205;28;20594;-86
2023/07/27 16:29:40;;;;;;;2.95;2.15;;;;;;;;;;10441684;28;20033;-85
2023/07/27 16:34:41;;;;;;;2.17;1.70;;;;;;;;;;10441831;28;20033;-85
2023/07/27 16:39:42;;;;;;;2.10;1.55;;;;;;;;;;10445406;28;20121;-85
2023/07/27 16:44:43;;;;;;;2.83;2.00;;;;;;;;;;10442608;28;20421;-86
2023/07/27 16:49:44;;;;;;;1.73;1.55;;;;;;;;;;10434785;28;20069;-86
2023/07/27 16:54:45;;;;;;;2.25;1.75;;;;;;;;;;10491681;22;20044;-83
2023/07/27 16:59:46;;;;;;;2.38;1.60;;;;;;;;;;10545412;22;20537;-86
2023/07/27 17:04:58;;;;;;;2.75;1.85;;;;;;;;;;10529821;28;20040;-87
2023/07/27 17:09:59;;;;;;;2.25;2.03;;;;;;;;;;10529137;28;20091;-88
2023/07/27 17:15:00;;;;;;;2.92;2.38;;;;;;;;;;10523049;28;20020;-87
2023/07/27 17:20:03;;;;;;;3.22;2.10;;;;;;;;;;10522026;28;20028;-84
2023/07/27 17:25:04;;;;;;;2.55;2.15;;;;;;;;;;10511452;28;20493;-84
2023/07/27 17:30:06;;;;;;;2.78;2.08;;;;;;;;;;10513240;28;20051;-85
2023/07/27 17:35:07;;;;;;;2.85;1.77;;;;;;;;;;10510415;28;20016;-85
2023/07/27 17:40:09;;;;;;;2.35;1.95;;;;;;;;;;10517586;28;20082;-86
2023/07/27 17:45:10;;;;;;;3.72;2.15;;;;;;;;;;10510765;28;20043;-86
2023/07/27 17:50:11;;;;;;;2.80;1.95;;;;;;;;;;10510201;28;20036;-83
2023/07/27 17:55:12;;;;;;;2.17;1.90;;;;;;;;;;10513194;28;20233;-84
2023/07/27 18:00:13;;;;;;;3.75;2.20;;;;;;;;;;10513598;28;20164;-84
2023/07/27 18:11:12;;;;;;;3.75;2.80;;;;;;;;;;10517548;28;20597;-84
2023/07/27 18:16:15;;;;;;;3.50;1.88;;;;;;;;;;10508557;28;20040;-84
2023/07/27 18:21:16;;;;;;;2.75;2.15;;;;;;;;;;10523281;28;20116;-85
2023/07/27 18:47:28;;;;;;;5.03;3.20;;;;;;;;;;11279508;22;20081;-85
2023/07/27 19:03:51;;;;;;;8.93;5.05;;;;;;;;;;10289082;28;20106;-85
2023/07/27 19:09:08;;;;;;;11.20;7.22;;;;;;;;;;10273759;28;20046;-83
2023/07/27 19:25:50;;;;;;;5.22;3.40;;;;;;;;;;10406602;28;20136;-85
2023/07/27 19:30:51;;;;;;;7.78;3.40;;;;;;;;;;10374830;28;20596;-83
2023/07/27 19:35:53;;;;;;;6.10;3.35;;;;;;;;;;10406740;28;20038;-84
2023/07/27 19:40:54;;;;;;;4.45;3.25;;;;;;;;;;10406136;28;20037;-84
2023/07/27 19:45:55;;;;;;;5.55;3.30;;;;;;;;;;10403436;28;20052;-83
2023/07/27 19:52:15;;;;;;;5.43;3.30;;;;;;;;;;10405793;28;20037;-83
2023/07/27 20:02:44;;;;;;;4.97;2.83;;;;;;;;;;10394740;28;20139;-84
2023/07/27 20:07:45;;;;;;;6.40;3.58;;;;;;;;;;10386748;28;20037;-83
2023/07/27 20:12:46;;;;;;;4.30;3.13;;;;;;;;;;10397475;28;20045;-85
2023/07/27 20:38:53;;;;;;;4.72;3.08;;;;;;;;;;10271178;28;20038;-82
2023/07/27 20:43:54;;;;;;;5.38;3.80;;;;;;;;;;10271334;28;20050;-82
2023/07/27 20:48:55;;;;;;;6.78;3.83;;;;;;;;;;10280912;28;20027;-82
2023/07/27 20:53:56;;;;;;;5.47;3.53;;;;;;;;;;10280518;28;20773;-82
2023/07/27 20:58:58;;;;;;;5.63;3.63;;;;;;;;;;10280910;28;20031;-83
2023/07/27 21:03:59;;;;;;;6.28;3.78;;;;;;;;;;10279735;28;20035;-83
2023/07/27 21:09:00;;;;;;;4.88;3.38;;;;;;;;;;10278377;28;20037;-83
2023/07/27 21:14:01;;;;;;;4.07;3.47;;;;;;;;;;10281121;28;20054;-83
2023/07/27 21:19:02;;;;;;;4.97;2.92;;;;;;;;;;10279143;28;20026;-83
2023/07/27 21:24:03;;;;;;;5.68;3.50;;;;;;;;;;10280348;28;20043;-83
2023/07/27 21:29:04;;;;;;;5.43;3.53;;;;;;;;;;10278386;28;20039;-83
2023/07/27 21:34:10;;;;;;;6.20;3.63;;;;;;;;;;10279926;28;20515;-83
2023/07/27 21:39:15;;;;;;;5.88;3.25;;;;;;;;;;10268360;28;20038;-83
2023/07/27 21:44:16;;;;;;;5.35;3.30;;;;;;;;;;10279879;28;20034;-84
2023/07/27 21:49:17;;;;;;;4.47;2.90;;;;;;;;;;10280661;28;20034;-83
2023/07/27 21:54:18;;;;;;;5.68;3.42;;;;;;;;;;10282150;28;20037;-83
2023/07/27 21:59:19;;;;;;;4.80;3.42;;;;;;;;;;10287454;28;20065;-83
2023/07/27 22:04:20;;;;;;;4.72;2.80;;;;;;;;;;10285370;28;20046;-84
2023/07/27 22:09:21;;;;;;;5.78;3.95;;;;;;;;;;10286848;28;20035;-83
2023/07/27 22:14:22;;;;;;;6.68;3.88;;;;;;;;;;10295319;28;20042;-83
2023/07/27 22:19:23;;;;;;;6.95;3.95;;;;;;;;;;10286454;28;20101;-83
2023/07/27 22:24:24;;;;;;;5.45;3.83;;;;;;;;;;10286933;28;20540;-83
2023/07/27 22:29:25;;;;;;;6.15;3.70;;;;;;;;;;10285048;28;20097;-83
2023/07/27 22:34:27;;;;;;;5.60;3.95;;;;;;;;;;10285740;28;20054;-83
2023/07/27 22:39:29;;;;;;;6.65;3.75;;;;;;;;;;10287126;28;20030;-83
2023/07/27 22:44:30;;;;;;;6.78;4.00;;;;;;;;;;10286400;28;20045;-84
2023/07/27 22:49:31;;;;;;;8.32;3.70;;;;;;;;;;10285758;28;20041;-83
2023/07/27 22:54:32;;;;;;;5.90;4.03;;;;;;;;;;10285044;28;20031;-83
2023/07/27 22:59:33;;;;;;;7.60;4.03;;;;;;;;;;10285830;28;20093;-84
2023/07/27 23:04:34;;;;;;;6.30;3.92;;;;;;;;;;10285186;28;20691;-84
2023/07/27 23:09:35;;;;;;;7.43;3.80;;;;;;;;;;10283211;28;20039;-84
2023/07/27 23:14:36;;;;;;;6.38;4.10;;;;;;;;;;10324200;23;20090;-85
2023/07/27 23:19:37;;;;;;;6.85;4.38;;;;;;;;;;10378867;28;20485;-84
2023/07/27 23:24:41;;;;;;;6.35;4.10;;;;;;;;;;10365397;28;20026;-83
2023/07/27 23:29:43;;;;;;;7.07;4.00;;;;;;;;;;10364953;28;20034;-83
2023/07/27 23:34:44;;;;;;;5.55;3.97;;;;;;;;;;10364430;28;20390;-84
2023/07/27 23:39:45;;;;;;;4.80;3.53;;;;;;;;;;10364343;28;20034;-84
2023/07/27 23:44:46;;;;;;;5.22;3.22;;;;;;;;;;10364667;28;20452;-83
2023/07/27 23:49:47;;;;;;;7.00;3.30;;;;;;;;;;10364371;28;20038;-84
2023/07/27 23:54:48;;;;;;;5.85;2.90;;;;;;;;;;10356759;28;20042;-84
2023/07/27 23:59:49;;;;;;;6.93;2.70;;;;;;;;;;10375386;23;20141;-83
